Latest Coastal Weather Observations for Wilsons Promontory

IDV60701

Issued at 6:22 am EDT Tuesday 17 January 2017 (issued every 10 minutes, with the page automatically refreshed every 10 minutes)

About coastal observations | Map of coastal stations | Coastal observations for VIC | Marine services | Other Formats
Station Details ID: 085096 Name: WILSONS PROMONTORY LIGHTHOUSE Lat: -39.13 Lon: 146.42 Height: 95.0 m
Data from the previous 72 hours. | See also: Recent months at Wilsons Promontory
Date/Time
EDT
Temp
°C
Wind Pressure Rain since
9am
mm
Weather Cloud Vis
km
Sea
Height
m
Swell
Dir  Spd
kts
Gust
kts
hPa Trend Height
m
Period
s
Dir
17/05:30am 21.4 W 5 6 1007.1 - 0.0 - - - - - - -
17/05:00am 20.6 W 5 6 1006.9 - 0.0 - - - - - - -
17/04:30am 18.9 W 5 6 1006.8 - 0.0 - - - - - - -
17/04:00am 19.4 CALM 0 3 1006.7 - 0.0 - - - - - - -
17/03:30am 18.5 NNE 8 10 1007.1 - 0.0 - - - - - - -
17/03:00am 18.6 NNE 10 11 1007.3 - 0.0 - - - - - - -
17/02:30am 19.6 NNE 12 14 1007.8 - 0.0 - - - - - - -
17/01:30am 19.9 NNE 15 19 1008.4 - 0.0 - - - - - - -
17/01:00am 19.2 NNE 15 19 1009.1 - 0.0 - - - - - - -
17/12:30am 18.6 NNE 11 13 1009.7 - 0.0 - - - - - - -
17/12:00am 18.3 NNE 12 14 1009.7 - 0.0 - - - - - - -
 
Date/Time
EDT
Temp
°C
Wind Pressure Rain since
9am
mm
Weather Cloud Vis
km
Sea
Height
m
Swell
Dir  Spd
kts
Gust
kts
hPa Trend Height
m
Period
s
Dir
16/11:30pm 17.9 NNE 11 13 1010.1 - 0.0 - - - - - - -
16/11:00pm 17.6 NNE 11 13 1010.6 - 0.0 - - - - - - -
16/10:30pm 17.5 NNE 12 15 1011.1 - 0.0 - - - - - - -
16/10:00pm 17.4 NNE 13 15 1011.0 - 0.0 - - - - - - -
16/09:30pm 17.0 NNE 15 17 1011.0 - 0.0 - - - - - - -
16/09:00pm 17.0 NNE 16 19 1010.9 - 0.0 - - - - - - -
16/08:30pm 17.1 NNE 13 15 1011.0 - 0.0 - - - - - - -
16/08:00pm 17.2 NE 15 17 1011.3 - 0.0 - - - - - - -
16/07:30pm 17.5 NNE 16 17 1011.2 - 0.0 - - - - - - -
16/07:00pm 17.6 NE 13 15 1011.4 - 0.0 - - - - - - -
16/06:30pm 17.9 NE 9 11 1011.3 - 0.0 - - - - - - -
16/06:00pm 19.3 NNE 8 10 1011.4 - 0.0 - - - - - - -
16/05:30pm 19.2 WSW 3 6 1011.9 - 0.0 - - - - - - -
16/05:00pm 18.7 W 6 12 1012.0 - 0.0 - - - - - - -
16/04:30pm 18.3 WSW 11 17 1012.2 - 0.0 - - - - - - -
16/04:00pm 18.3 WSW 10 17 1012.6 - 0.0 - - - - - - -
16/03:30pm 17.7 WSW 14 20 1012.6 - 0.0 - - - - - - -
16/03:00pm 17.7 WSW 14 21 1012.6 - 0.0 - - - - - - -
16/02:30pm 17.6 W 9 17 1013.2 - 0.0 - - - - - - -
16/02:00pm 17.3 W 10 16 1013.5 - 0.0 - - - - - - -
16/01:30pm 18.0 W 10 17 1013.9 - 0.0 - - - - - - -
16/01:00pm 18.4 W 13 21 1014.0 - 0.0 - - - - - - -
16/12:30pm 17.5 W 14 20 1013.8 - 0.0 - - - - - - -
16/12:00pm 17.5 W 7 18 1013.9 - 0.0 - - - - - - -
16/11:30am 16.9 W 12 19 1014.4 - 0.0 - - - - - - -
16/11:00am 17.7 W 13 19 1015.0 - 0.0 - - - - - - -
16/10:30am 17.2 W 13 19 1015.0 - 0.0 - - - - - - -
16/10:00am 17.2 W 9 16 1015.4 - 0.0 - - - - - - -
16/09:30am 16.5 W 16 23 1015.4 - 0.0 - - - - - - -
16/09:00am 16.3 W 14 22 1015.2 - 0.0 - - - - - - -
16/08:30am 16.2 W 15 22 1015.5 - 0.0 - - - - - - -
16/08:00am 15.8 W 10 15 1015.5 - 0.0 - - - - - - -
16/07:30am 15.6 W 16 21 1015.2 - 0.0 - - - - - - -
16/07:00am 15.3 W 13 19 1015.0 - 0.0 - - - - - - -
16/06:30am 15.1 W 14 19 1014.8 - 0.0 - - - - - - -
16/06:00am 15.0 W 12 18 1014.5 - 0.0 - - - - - - -
16/05:30am 15.0 W 10 13 1014.8 - 0.0 - - - - - - -
16/05:00am 15.0 W 7 13 1014.6 - 0.0 - - - - - - -
16/04:30am 15.1 W 10 15 1014.3 - 0.0 - - - - - - -
16/04:00am 15.0 W 10 16 1014.3 - 0.0 - - - - - - -
16/03:30am 15.1 W 12 19 1014.3 - 0.0 - - - - - - -
16/03:00am 15.1 W 12 17 1014.3 - 0.0 - - - - - - -
16/02:30am 15.2 W 13 19 1014.7 - 0.0 - - - - - - -
16/02:00am 15.4 W 10 15 1015.2 - 0.0 - - - - - - -
16/01:30am 15.5 W 12 18 1015.4 - 0.0 - - - - - - -
16/01:00am 15.4 W 11 18 1015.6 - 0.0 - - - - - - -
16/12:30am 15.4 W 13 20 1015.9 - 0.0 - - - - - - -
16/12:00am 15.4 W 12 18 1016.0 - 0.0 - - - - - - -
 
Date/Time
EDT
Temp
°C
Wind Pressure Rain since
9am
mm
Weather Cloud Vis
km
Sea
Height
m
Swell
Dir  Spd
kts
Gust
kts
hPa Trend Height
m
Period
s
Dir
15/11:30pm 15.3 W 11 19 1016.1 - 0.0 - - - - - - -
15/11:00pm 15.3 W 14 18 1016.3 - 0.0 - - - - - - -
15/10:30pm 15.3 W 14 21 1016.5 - 0.0 - - - - - - -
15/10:00pm 15.4 W 15 25 1016.7 - 0.0 - - - - - - -
15/09:56pm 15.4 W 15 25 1016.6 - 0.0 - - - - - - -
15/09:30pm 15.4 W 13 22 1016.6 - 0.0 - - - - - - -
15/09:00pm 15.2 W 13 22 1016.0 - 0.0 - - - - - - -
15/08:30pm 15.4 W 16 24 1015.8 - 0.0 - - - - - - -
15/08:19pm 15.4 W 18 28 1015.8 - 0.0 - - - - - - -
15/08:00pm 15.4 W 20 28 1015.8 - 0.0 - - - - - - -
15/07:30pm 15.6 W 22 28 1015.6 - 0.0 - - - - - - -
15/07:00pm 15.8 W 20 30 1015.7 - 0.0 - - - - - - -
15/06:30pm 16.0 W 28 34 1015.5 - 0.0 - - - - - - -
15/06:00pm 15.9 W 26 33 1015.4 - 0.0 - - - - - - -
15/05:30pm 16.3 W 27 35 1015.6 - 0.0 - - - - - - -
15/05:09pm 17.0 W 23 33 1015.6 - 0.0 - - - - - - -
15/04:30pm 17.2 W 24 30 1016.3 - 0.0 - - - - - - -
15/04:00pm 16.8 W 21 28 1016.8 - 0.0 - - - - - - -
15/03:30pm 17.0 W 22 27 1016.9 - 0.0 - - - - - - -
15/03:00pm 16.5 W 22 27 1016.7 - 0.0 - - - - - - -
15/02:30pm 17.0 W 19 26 1017.1 - 0.0 - - - - - - -
15/02:00pm 16.7 W 23 28 1017.2 - 0.0 - - - - - - -
15/01:00pm 17.1 W 21 26 1017.1 - 0.0 - - - - - - -
15/12:30pm 16.7 W 21 26 1017.0 - 0.0 - - - - - - -
15/12:00pm 16.7 W 20 28 1016.8 - 0.0 - - - - - - -
15/11:30am 15.8 W 19 26 1017.1 - 0.0 - - - - - - -
15/11:15am 15.8 W 17 27 1017.0 - 0.0 - - - - - - -
15/11:00am 15.8 W 18 27 1016.9 - 0.0 - - - - - - -
15/10:34am 15.2 W 18 28 1016.8 - 0.0 - - - - - - -
15/10:30am 15.5 W 18 26 1017.0 - 0.0 - - - - - - -
15/10:00am 15.5 W 17 25 1016.8 - 0.0 - - - - - - -
15/09:30am 15.5 W 24 31 1016.5 - 0.0 - - - - - - -
15/09:07am 15.1 W 18 28 1016.1 - 0.0 - - - - - - -
15/09:00am 15.3 W 20 28 1016.1 - 0.2 - - - - - - -
15/08:30am 15.5 W 17 27 1016.0 - 0.2 - - - - - - -
15/08:21am 15.5 W 19 29 1016.0 - 0.2 - - - - - - -
15/08:00am 15.0 W 16 24 1015.9 - 0.2 - - - - - - -
15/07:30am 14.6 W 20 30 1015.3 - 0.2 - - - - - - -
15/07:05am 15.0 WSW 24 34 1014.9 - 0.2 - - - - - - -
15/07:02am 14.9 WSW 30 34 1014.7 - 0.2 - - - - - - -
15/07:00am 15.0 W 19 30 1014.8 - 0.2 - - - - - - -
15/06:38am 14.9 W 19 29 1014.8 - 0.2 - - - - - - -
15/06:30am 14.8 W 17 25 1014.9 - 0.2 - - - - - - -
15/06:11am 14.8 W 19 29 1014.8 - 0.2 - - - - - - -
15/06:00am 14.6 W 20 28 1014.3 - 0.2 - - - - - - -
15/05:31am 14.6 W 22 32 1014.0 - 0.2 - - - - - - -
15/05:30am 14.7 W 22 28 1014.0 - 0.2 - - - - - - -
15/05:10am 14.9 WSW 25 35 1013.7 - 0.2 - - - - - - -
15/05:00am 14.7 WSW 31 37 1013.3 - 0.2 - - - - - - -
15/04:33am 14.8 W 27 37 1013.4 - 0.2 - - - - - - -
15/04:30am 14.9 WSW 29 37 1013.2 - 0.2 - - - - - - -
15/04:24am 14.9 WSW 33 37 1012.8 - 0.2 - - - - - - -
15/04:02am 14.8 W 19 29 1013.3 - 0.2 - - - - - - -
15/04:00am 14.7 W 20 29 1013.3 - 0.2 - - - - - - -
15/03:30am 14.6 W 26 36 1013.0 - 0.2 - - - - - - -
15/03:02am 14.6 W 25 37 1012.9 - 0.2 - - - - - - -
15/03:00am 14.6 W 24 32 1012.8 - 0.2 - - - - - - -
15/02:50am 14.6 W 23 37 1013.0 - 0.2 - - - - - - -
15/02:38am 14.7 WSW 35 45 1012.4 - 0.2 - - - - - - -
15/02:30am 14.8 WSW 36 45 1012.3 - 0.2 - - - - - - -
15/02:16am 14.7 WSW 37 43 1012.3 - 0.2 - - - - - - -
15/02:00am 14.9 W 27 39 1012.7 - 0.2 - - - - - - -
15/01:30am 15.1 W 29 42 1012.5 - 0.2 - - - - - - -
15/01:25am 15.3 W 27 43 1012.6 - 0.2 - - - - - - -
15/01:23am 15.2 W 26 50 1012.6 - 0.2 - - - - - - -
15/01:12am 15.2 WSW 37 47 1012.0 - 0.2 - - - - - - -
15/01:00am 15.0 WSW 40 47 1012.3 - 0.2 - - - - - - -
15/12:30am 15.1 W 35 50 1012.7 - 0.2 - - - - - - -
15/12:17am 15.2 WSW 37 47 1012.0 - 0.2 - - - - - - -
15/12:06am 15.0 WSW 36 43 1012.2 - 0.2 - - - - - - -
15/12:00am 15.2 W 23 37 1012.7 - 0.2 - - - - - - -
 
Date/Time
EDT
Temp
°C
Wind Pressure Rain since
9am
mm
Weather Cloud Vis
km
Sea
Height
m
Swell
Dir  Spd
kts
Gust
kts
hPa Trend Height
m
Period
s
Dir
14/11:55pm 15.1 W 26 37 1012.7 - 0.2 - - - - - - -
14/11:54pm 15.1 W 24 38 1012.7 - 0.2 - - - - - - -
14/11:30pm 15.2 WSW 37 52 1011.3 - 0.2 - - - - - - -
14/11:00pm 15.2 W 33 45 1011.3 - 0.2 - - - - - - -
14/10:53pm 15.3 WSW 36 46 1011.5 - 0.2 - - - - - - -
14/10:45pm 15.4 W 29 47 1011.3 - 0.2 - - - - - - -
14/10:42pm 15.4 W 27 49 1011.2 - 0.2 - - - - - - -
14/10:30pm 15.2 WSW 38 49 1011.2 - 0.2 - - - - - - -
14/10:00pm 15.2 W 32 46 1011.2 - 0.2 - - - - - - -
14/09:30pm 15.4 W 35 52 1010.0 - 0.2 - - - - - - -
14/09:00pm 15.5 W 34 46 1009.2 - 0.2 - - - - - - -
14/08:30pm 15.0 W 36 46 1009.1 - 0.2 - - - - - - -
14/08:00pm 15.1 W 33 47 1008.6 - 0.2 - - - - - - -
14/07:30pm 15.7 W 28 40 1008.0 - 0.0 - - - - - - -
14/07:00pm 16.1 W 36 48 1007.5 - 0.0 - - - - - - -
14/06:30pm 16.3 W 32 49 1007.3 - 0.0 - - - - - - -
14/06:00pm 16.3 W 33 49 1006.4 - 0.0 - - - - - - -
14/05:30pm 17.0 W 33 50 1006.6 - 0.0 - - - - - - -
14/05:00pm 16.8 W 30 45 1006.5 - 0.0 - - - - - - -
14/04:30pm 16.8 W 35 48 1006.1 - 0.0 - - - - - - -
14/04:00pm 17.0 W 34 49 1005.5 - 0.0 - - - - - - -
14/03:37pm 17.1 W 37 51 1005.8 - 0.0 - - - - - - -
14/03:34pm 16.8 W 38 51 1005.1 - 0.0 - - - - - - -
14/03:30pm 17.0 W 26 42 1005.9 - 0.0 - - - - - - -
14/03:17pm 16.8 W 23 41 1005.9 - 0.0 - - - - - - -
14/03:00pm 17.3 W 35 45 1005.0 - 0.0 - - - - - - -
14/02:30pm 17.3 W 32 49 1004.6 - 0.0 - - - - - - -
14/02:00pm 15.9 W 33 50 1004.3 - 0.0 - - - - - - -
14/01:30pm 15.5 W 36 50 1003.8 - 0.0 - - - - - - -
14/01:12pm 17.2 W 37 50 1003.3 - 0.0 - - - - - - -
14/01:09pm 17.5 W 22 51 1004.0 - 0.0 - - - - - - -
14/01:00pm 17.5 W 38 51 1003.0 - 0.0 - - - - - - -
14/12:30pm 17.0 W 38 57 1002.8 - 0.0 - - - - - - -
14/12:00pm 17.6 W 36 55 1002.0 - 0.0 - - - - - - -
14/11:30am 16.4 W 41 57 1001.8 - 0.0 - - - - - - -
14/11:00am 16.9 W 39 55 1001.4 - 0.0 - - - - - - -
14/10:30am 16.8 W 37 51 1001.9 - 0.0 - - - - - - -
14/10:00am 17.3 W 33 50 1001.5 - 0.0 - - - - - - -
14/09:30am 17.2 W 33 48 1002.0 - 0.0 - - - - - - -
14/09:00am 16.0 W 36 56 1001.9 - 29.0 - - - - - - -
14/08:30am 17.3 W 36 52 1000.7 - 29.0 - - - - - - -
14/08:00am 16.9 W 38 53 1000.2 - 29.0 - - - - - - -
14/07:30am 15.1 W 39 59 1000.1 - 29.0 - - - - - - -
14/07:00am 16.5 W 38 59 999.8 - 29.0 - - - - - - -
14/06:43am 16.7 W 44 57 999.0 - 29.0 - - - - - - -
14/06:30am 16.3 W 33 56 999.6 - 29.0 - - - - - - -
14/06:29am 16.3 W 32 56 999.8 - 29.0 - - - - - - -

Other Formats:

Comma delimited format used in spreadsheet applications
http://www.bom.gov.au/fwo/IDV60701/IDV60701.94893.axf

JavaScript Object Notation format (JSON) in row-major order
http://www.bom.gov.au/fwo/IDV60701/IDV60701.94893.json